createdAt,value
2023-04-10T00:00:25.174Z,2.40
2023-04-10T00:01:25.237Z,2.51
2023-04-10T00:02:25.401Z,1.97
2023-04-10T00:03:25.474Z,2.41
2023-04-10T00:04:25.542Z,2.42
2023-04-10T00:05:25.477Z,2.99
2023-04-10T00:06:25.540Z,2.24
2023-04-10T00:07:25.610Z,2.35
2023-04-10T00:08:25.645Z,2.93
2023-04-10T00:09:25.697Z,2.32
2023-04-10T00:10:25.753Z,2.44
2023-04-10T00:11:25.822Z,2.19
2023-04-10T00:12:25.903Z,2.65
2023-04-10T00:13:25.952Z,2.65
2023-04-10T00:14:26.003Z,2.04
2023-04-10T00:15:26.083Z,2.73
2023-04-10T00:16:26.165Z,2.47
2023-04-10T00:17:26.239Z,2.28
2023-04-10T00:18:26.269Z,2.34
2023-04-10T00:19:26.301Z,2.63
2023-04-10T00:20:26.469Z,2.29
2023-04-10T00:21:26.427Z,2.51
2023-04-10T00:22:26.572Z,2.44
2023-04-10T00:23:26.568Z,2.40
2023-04-10T00:24:26.616Z,2.11
2023-04-10T00:25:26.734Z,2.83
2023-04-10T00:26:26.765Z,2.23
2023-04-10T00:27:26.889Z,2.58
2023-04-10T00:28:26.851Z,2.35
2023-04-10T00:29:26.920Z,2.15
2023-04-10T00:30:26.987Z,2.51
2023-04-10T00:31:27.035Z,2.33
2023-04-10T00:32:27.110Z,2.39
2023-04-10T00:33:27.149Z,2.44
2023-04-10T00:34:27.216Z,2.20
2023-04-10T00:35:27.264Z,2.56
2023-04-10T00:36:27.328Z,2.16
2023-04-10T00:37:27.454Z,2.29
2023-04-10T00:38:27.468Z,2.30
2023-04-10T00:39:27.509Z,2.65
2023-04-10T00:40:27.577Z,2.18
2023-04-10T00:41:27.635Z,2.57
2023-04-10T00:42:27.690Z,2.23
2023-04-10T00:43:27.772Z,2.33
2023-04-10T00:44:27.827Z,2.36
2023-04-10T00:45:27.898Z,2.15
2023-04-10T00:46:28.088Z,2.53
2023-04-10T00:47:28.138Z,2.53
2023-04-10T00:48:28.058Z,2.33
2023-04-10T00:49:28.134Z,2.47
2023-04-10T00:50:28.173Z,2.45
2023-04-10T00:51:28.248Z,2.59
2023-04-10T00:52:28.313Z,2.24
2023-04-10T00:53:28.366Z,2.12
2023-04-10T00:54:28.421Z,2.29
2023-04-10T00:55:28.476Z,2.35
2023-04-10T00:56:28.547Z,2.53
2023-04-10T00:57:28.595Z,2.48
2023-04-10T00:58:28.674Z,2.23
2023-04-10T00:59:28.736Z,2.24
2023-04-10T01:00:28.778Z,2.09
2023-04-10T01:01:28.884Z,2.27
2023-04-10T01:02:29.037Z,1.86
2023-04-10T01:03:29.326Z,2.29
2023-04-10T01:04:29.128Z,2.59
2023-04-10T01:05:29.102Z,2.31
2023-04-10T01:06:29.171Z,2.36
2023-04-10T01:07:29.243Z,2.46
2023-04-10T01:08:29.296Z,2.26
2023-04-10T01:09:29.331Z,2.54
2023-04-10T01:10:29.417Z,2.13
2023-04-10T01:11:29.492Z,2.15
2023-04-10T01:12:29.581Z,2.51
2023-04-10T01:13:29.607Z,2.32
2023-04-10T01:14:29.646Z,2.51
2023-04-10T01:15:29.710Z,1.95
2023-04-10T01:16:29.787Z,2.26
2023-04-10T01:17:29.862Z,2.04
2023-04-10T01:18:29.898Z,2.39
2023-04-10T01:19:29.977Z,2.35
2023-04-10T01:20:30.012Z,2.08
2023-04-10T01:21:30.084Z,2.43
2023-04-10T01:22:30.148Z,1.95
2023-04-10T01:23:30.219Z,1.92
2023-04-10T01:24:30.286Z,2.38
2023-04-10T01:25:30.352Z,2.57
2023-04-10T01:26:30.410Z,2.13
2023-04-10T01:27:30.462Z,2.38
2023-04-10T01:28:30.574Z,2.34
2023-04-10T01:29:30.591Z,2.25
2023-04-10T01:30:30.708Z,2.42
2023-04-10T01:31:30.728Z,2.55
2023-04-10T01:32:30.802Z,2.44
2023-04-10T01:33:30.838Z,2.32
2023-04-10T01:34:30.906Z,2.13
2023-04-10T01:35:30.969Z,2.32
2023-04-10T01:36:31.022Z,2.38
2023-04-10T01:37:31.090Z,2.36
2023-04-10T01:38:31.130Z,2.57
2023-04-10T01:39:31.188Z,2.39
2023-04-10T01:40:31.265Z,2.39
2023-04-10T01:41:31.312Z,2.62
2023-04-10T01:42:31.380Z,2.21
2023-04-10T01:43:31.452Z,2.17
2023-04-10T01:44:31.542Z,2.16
2023-04-10T01:45:31.565Z,2.45
2023-04-10T01:46:31.654Z,2.31
2023-04-10T01:47:31.704Z,2.26
2023-04-10T01:48:31.761Z,2.33
2023-04-10T01:49:31.837Z,2.36
2023-04-10T01:50:31.863Z,2.06
2023-04-10T01:51:31.933Z,2.19
2023-04-10T01:52:31.994Z,2.29
2023-04-10T01:53:32.063Z,2.01
2023-04-10T01:54:32.107Z,2.16
2023-04-10T01:55:32.176Z,2.27
2023-04-10T01:56:32.252Z,2.37
2023-04-10T01:57:32.320Z,2.08
2023-04-10T01:58:32.361Z,2.32
2023-04-10T01:59:32.430Z,2.12
2023-04-10T02:00:32.469Z,2.42
2023-04-10T02:01:32.537Z,2.27
2023-04-10T02:02:32.664Z,2.60
2023-04-10T02:03:32.872Z,2.22
2023-04-10T02:04:32.773Z,2.46
2023-04-10T02:05:32.759Z,2.41
2023-04-10T02:06:32.821Z,2.00
2023-04-10T02:07:32.875Z,2.13
2023-04-10T02:08:32.919Z,2.85
2023-04-10T02:09:32.985Z,2.80
2023-04-10T02:10:33.018Z,2.85
2023-04-10T02:11:33.094Z,2.53
2023-04-10T02:12:33.151Z,2.29
2023-04-10T02:13:33.202Z,2.45
2023-04-10T02:14:33.256Z,2.47
2023-04-10T02:15:33.295Z,2.55
2023-04-10T02:16:33.424Z,2.40
2023-04-10T02:17:33.434Z,1.95
2023-04-10T02:18:33.472Z,2.12
2023-04-10T02:19:33.509Z,2.25
2023-04-10T02:20:33.572Z,2.30
2023-04-10T02:21:33.640Z,2.44
2023-04-10T02:22:33.690Z,2.35
2023-04-10T02:23:33.773Z,2.47
2023-04-10T02:24:33.815Z,2.21
2023-04-10T02:25:33.893Z,2.27
2023-04-10T02:26:33.927Z,2.36
2023-04-10T02:27:34.001Z,2.52
2023-04-10T02:28:34.050Z,2.44
2023-04-10T02:29:34.096Z,2.38
2023-04-10T02:30:34.166Z,2.89
2023-04-10T02:31:34.241Z,2.38
2023-04-10T02:32:34.306Z,2.32
2023-04-10T02:33:34.319Z,2.66
2023-04-10T02:34:34.406Z,2.22
2023-04-10T02:35:34.464Z,2.47
2023-04-10T02:36:34.492Z,2.36
2023-04-10T02:37:34.567Z,2.59
2023-04-10T02:38:34.617Z,2.78
2023-04-10T02:39:34.660Z,2.11
2023-04-10T02:40:34.722Z,2.00
2023-04-10T02:41:34.794Z,2.45
2023-04-10T02:42:34.858Z,2.59
2023-04-10T02:43:34.904Z,2.35
2023-04-10T02:44:34.972Z,2.38
2023-04-10T02:45:35.023Z,2.33
2023-04-10T02:46:35.140Z,2.19
2023-04-10T02:47:35.162Z,2.19
2023-04-10T02:48:35.210Z,2.22
2023-04-10T02:49:35.277Z,2.30
2023-04-10T02:50:35.335Z,2.40
2023-04-10T02:51:35.391Z,2.32
2023-04-10T02:52:35.455Z,1.91
2023-04-10T02:53:35.489Z,2.42
2023-04-10T02:54:35.566Z,2.75
2023-04-10T02:55:35.588Z,2.14
2023-04-10T02:56:35.662Z,2.11
2023-04-10T02:57:35.677Z,2.30
2023-04-10T02:58:35.744Z,2.17
2023-04-10T02:59:35.807Z,2.46
2023-04-10T03:00:35.833Z,2.50
2023-04-10T03:01:35.916Z,2.17
2023-04-10T03:02:36.043Z,2.22
2023-04-10T03:03:36.033Z,2.30
2023-04-10T03:04:36.059Z,1.94
2023-04-10T03:05:36.093Z,2.36
2023-04-10T03:06:36.141Z,2.72
2023-04-10T03:07:36.203Z,2.25
2023-04-10T03:08:36.272Z,2.23
2023-04-10T03:09:36.346Z,2.18
2023-04-10T03:10:36.364Z,2.72
2023-04-10T03:11:36.445Z,2.31
2023-04-10T03:12:36.484Z,2.21
2023-04-10T03:13:36.537Z,2.14
2023-04-10T03:14:36.599Z,2.24
2023-04-10T03:15:36.638Z,2.66
2023-04-10T03:16:36.846Z,2.04
2023-04-10T03:17:36.844Z,2.06
2023-04-10T03:18:36.812Z,2.10
2023-04-10T03:19:36.864Z,2.06
2023-04-10T03:20:36.932Z,2.24
2023-04-10T03:21:36.978Z,2.50
2023-04-10T03:22:37.026Z,1.87
2023-04-10T03:23:37.081Z,2.37
2023-04-10T03:24:37.165Z,2.27
2023-04-10T03:25:37.182Z,2.54
2023-04-10T03:26:37.246Z,2.45
2023-04-10T03:27:37.283Z,2.34
2023-04-10T03:28:37.342Z,2.29
2023-04-10T03:29:37.359Z,2.46
2023-04-10T03:30:37.446Z,2.45
2023-04-10T03:31:37.533Z,2.42
2023-04-10T03:32:37.531Z,2.07
2023-04-10T03:33:37.591Z,2.48
2023-04-10T03:34:37.638Z,2.61
2023-04-10T03:35:37.711Z,2.17
2023-04-10T03:36:37.737Z,2.13
2023-04-10T03:37:37.782Z,1.98
2023-04-10T03:38:37.799Z,2.05
2023-04-10T03:39:37.841Z,2.07
2023-04-10T03:40:37.905Z,2.20
2023-04-10T03:41:37.929Z,2.36
2023-04-10T03:42:37.977Z,2.52
2023-04-10T03:43:38.032Z,2.25
2023-04-10T03:44:38.093Z,2.33
2023-04-10T03:45:38.145Z,2.62
2023-04-10T03:46:38.205Z,2.08
2023-04-10T03:47:38.275Z,2.31
2023-04-10T03:48:38.274Z,2.31
2023-04-10T03:49:38.348Z,2.32
2023-04-10T03:50:38.389Z,1.97
2023-04-10T03:51:38.441Z,1.97
2023-04-10T03:52:38.493Z,2.19
2023-04-10T03:53:38.532Z,2.08
2023-04-10T03:54:38.552Z,2.37
2023-04-10T03:55:38.680Z,2.23
2023-04-10T03:56:38.695Z,2.04
2023-04-10T03:57:38.697Z,2.26
2023-04-10T03:58:38.727Z,2.07
2023-04-10T03:59:39.103Z,2.29
2023-04-10T04:00:38.819Z,2.39
2023-04-10T04:01:38.902Z,2.21
2023-04-10T04:02:39.074Z,2.38
2023-04-10T04:03:39.072Z,2.29
2023-04-10T04:04:39.158Z,2.53
2023-04-10T04:05:39.013Z,2.66
2023-04-10T04:06:39.059Z,1.93
2023-04-10T04:07:39.068Z,2.43
2023-04-10T04:08:39.117Z,2.20
2023-04-10T04:09:39.140Z,2.30
2023-04-10T04:10:39.153Z,2.44
2023-04-10T04:11:39.186Z,2.32
2023-04-10T04:12:39.203Z,2.42
2023-04-10T04:13:39.216Z,1.89
2023-04-10T04:14:39.229Z,2.17
2023-04-10T04:15:39.276Z,2.62
2023-04-10T04:16:39.361Z,2.00
2023-04-10T04:17:39.392Z,2.03
2023-04-10T04:18:39.729Z,2.27
2023-04-10T04:19:39.416Z,2.34
2023-04-10T04:20:39.821Z,2.36
2023-04-10T04:21:39.492Z,2.21
2023-04-10T04:22:39.523Z,2.34
2023-04-10T04:23:39.587Z,2.08
2023-04-10T04:24:39.602Z,2.07
2023-04-10T04:25:39.664Z,2.11
2023-04-10T04:26:39.719Z,2.32
2023-04-10T04:27:39.730Z,2.17
2023-04-10T04:28:39.774Z,1.94
2023-04-10T04:29:39.808Z,2.42
2023-04-10T04:30:39.891Z,2.06
2023-04-10T04:31:39.959Z,2.37
2023-04-10T04:32:39.977Z,1.96
2023-04-10T04:33:39.964Z,2.26
2023-04-10T04:34:40.028Z,2.27
2023-04-10T04:35:40.078Z,2.24
2023-04-10T04:36:40.091Z,2.11
2023-04-10T04:37:40.105Z,2.30
2023-04-10T04:38:40.117Z,2.27
2023-04-10T04:39:40.164Z,2.35
2023-04-10T04:40:40.187Z,1.98
2023-04-10T04:41:40.201Z,2.08
2023-04-10T04:42:40.236Z,2.14
2023-04-10T04:43:40.289Z,2.50
2023-04-10T04:44:40.316Z,2.26
2023-04-10T04:45:40.388Z,2.08
2023-04-10T04:46:41.117Z,2.34
2023-04-10T04:47:40.438Z,2.13
2023-04-10T04:48:40.452Z,2.16
2023-04-10T04:49:40.509Z,2.20
2023-04-10T04:50:40.593Z,2.57
2023-04-10T04:51:40.594Z,2.43
2023-04-10T04:52:40.690Z,2.26
2023-04-10T04:53:40.669Z,2.60
2023-04-10T04:54:40.708Z,2.10
2023-04-10T04:55:40.732Z,2.25
2023-04-10T04:56:40.789Z,2.50
2023-04-10T04:57:40.824Z,2.45
2023-04-10T04:58:40.887Z,2.26
2023-04-10T04:59:40.919Z,2.60
2023-04-10T05:00:40.949Z,2.10
2023-04-10T05:01:41.093Z,2.31
2023-04-10T05:02:41.102Z,2.44
2023-04-10T05:03:41.126Z,2.30
2023-04-10T05:04:41.139Z,2.06
2023-04-10T05:05:41.214Z,2.35
2023-04-10T05:06:41.204Z,2.12
2023-04-10T05:07:41.244Z,2.09
2023-04-10T05:08:41.321Z,2.46
2023-04-10T05:09:41.337Z,2.39
2023-04-10T05:10:41.412Z,2.46
2023-04-10T05:11:41.432Z,2.28
2023-04-10T05:12:41.503Z,2.09
2023-04-10T05:13:41.528Z,2.24
2023-04-10T05:14:41.569Z,2.16
2023-04-10T05:15:41.656Z,2.16
2023-04-10T05:16:41.703Z,2.09
2023-04-10T05:17:41.869Z,2.33
2023-04-10T05:18:41.825Z,2.17
2023-04-10T05:19:41.896Z,2.59
2023-04-10T05:20:41.991Z,1.95
2023-04-10T05:21:41.981Z,2.20
2023-04-10T05:22:42.060Z,2.29
2023-04-10T05:23:42.115Z,2.01
2023-04-10T05:24:42.174Z,2.10
2023-04-10T05:25:42.214Z,2.63
2023-04-10T05:26:42.312Z,2.60
2023-04-10T05:27:42.351Z,2.40
2023-04-10T05:28:42.427Z,2.20
2023-04-10T05:29:42.490Z,2.09
2023-04-10T05:30:42.591Z,2.09
2023-04-10T05:31:42.552Z,2.23
2023-04-10T05:32:42.623Z,2.53
2023-04-10T05:33:42.620Z,2.45
2023-04-10T05:34:42.639Z,2.41
2023-04-10T05:35:42.680Z,2.35
2023-04-10T05:36:42.677Z,2.25
2023-04-10T05:37:42.709Z,2.29
2023-04-10T05:38:42.850Z,2.27
2023-04-10T05:39:42.814Z,2.76
2023-04-10T05:40:42.837Z,2.59
2023-04-10T05:41:42.879Z,2.54
2023-04-10T05:42:42.875Z,2.65
2023-04-10T05:43:42.906Z,2.76
2023-04-10T05:44:42.911Z,2.57
2023-04-10T05:45:42.936Z,2.32
2023-04-10T05:46:43.007Z,2.50
2023-04-10T05:47:43.035Z,2.64
2023-04-10T05:48:43.008Z,2.62
2023-04-10T05:49:43.077Z,2.67
2023-04-10T05:50:43.114Z,2.82
2023-04-10T05:51:43.154Z,2.41
2023-04-10T05:52:43.139Z,2.76
2023-04-10T05:53:43.165Z,2.55
2023-04-10T05:54:43.225Z,2.50
2023-04-10T05:55:43.271Z,2.47
2023-04-10T05:56:43.329Z,2.84
2023-04-10T05:57:43.374Z,2.84
2023-04-10T05:58:43.430Z,2.98
2023-04-10T05:59:43.482Z,2.87
2023-04-10T06:00:43.507Z,2.66
2023-04-10T06:01:43.607Z,3.23
2023-04-10T06:02:43.704Z,2.92
2023-04-10T06:03:43.721Z,3.37
2023-04-10T06:04:43.800Z,2.80
2023-04-10T06:05:43.692Z,2.80
2023-04-10T06:06:43.767Z,2.35
2023-04-10T06:07:43.758Z,3.35
2023-04-10T06:08:43.755Z,2.69
2023-04-10T06:09:43.777Z,2.56
2023-04-10T06:10:43.821Z,2.89
2023-04-10T06:11:43.899Z,3.17
2023-04-10T06:12:43.934Z,3.17
2023-04-10T06:13:43.961Z,2.78
2023-04-10T06:14:44.020Z,3.49
2023-04-10T06:15:44.088Z,2.93
2023-04-10T06:16:44.183Z,3.10
2023-04-10T06:17:44.255Z,2.43
2023-04-10T06:18:44.300Z,2.63
2023-04-10T06:19:44.341Z,3.47
2023-04-10T06:20:44.384Z,3.28
2023-04-10T06:21:44.700Z,2.90
2023-04-10T06:22:44.490Z,2.69
2023-04-10T06:23:44.582Z,2.67
2023-04-10T06:24:44.633Z,2.86
2023-04-10T06:25:44.697Z,2.88
2023-04-10T06:26:44.706Z,3.08
2023-04-10T06:27:44.716Z,2.45
2023-04-10T06:28:44.759Z,3.17
2023-04-10T06:29:44.792Z,2.57
2023-04-10T06:30:44.830Z,2.94
2023-04-10T06:31:44.921Z,2.83
2023-04-10T06:32:45.010Z,3.08
2023-04-10T06:33:44.985Z,2.63
2023-04-10T06:34:45.024Z,2.51
2023-04-10T06:35:45.048Z,2.38
2023-04-10T06:36:45.068Z,2.62
2023-04-10T06:37:45.100Z,3.29
2023-04-10T06:38:45.131Z,2.54
2023-04-10T06:39:45.132Z,2.80
2023-04-10T06:40:45.192Z,2.86
2023-04-10T06:41:45.255Z,2.49
2023-04-10T06:42:45.268Z,2.55
2023-04-10T06:43:45.292Z,2.47
2023-04-10T06:44:45.319Z,2.37
2023-04-10T06:45:45.374Z,2.25
2023-04-10T06:46:45.441Z,2.75
2023-04-10T06:47:45.448Z,2.54
2023-04-10T06:48:45.456Z,2.67
2023-04-10T06:49:45.579Z,2.91
2023-04-10T06:50:45.532Z,2.50
2023-04-10T06:51:45.558Z,2.82
2023-04-10T06:52:45.581Z,2.74
2023-04-10T06:53:45.637Z,3.00
2023-04-10T06:54:45.644Z,2.99
2023-04-10T06:55:45.677Z,2.70
2023-04-10T06:56:45.681Z,2.62
2023-04-10T06:57:45.732Z,2.41
2023-04-10T06:58:45.768Z,2.85
2023-04-10T06:59:45.801Z,2.46
2023-04-10T07:00:45.894Z,3.44
2023-04-10T07:01:45.891Z,2.46
2023-04-10T07:02:45.972Z,2.77
2023-04-10T07:03:46.074Z,2.60
2023-04-10T07:04:46.093Z,2.91
2023-04-10T07:05:46.127Z,2.76
2023-04-10T07:06:46.195Z,2.58
2023-04-10T07:07:46.232Z,2.72
2023-04-10T07:08:46.235Z,2.82
2023-04-10T07:09:46.270Z,2.73
2023-04-10T07:10:46.282Z,2.59
2023-04-10T07:11:46.297Z,2.95
2023-04-10T07:12:46.282Z,2.99
2023-04-10T07:13:46.282Z,2.60
2023-04-10T07:14:46.290Z,2.88
2023-04-10T07:15:46.274Z,2.73
2023-04-10T07:16:46.464Z,3.08
2023-04-10T07:17:46.341Z,2.46
2023-04-10T07:18:47.374Z,2.54
2023-04-10T07:19:46.295Z,2.84
2023-04-10T07:20:46.306Z,3.08
2023-04-10T07:21:46.354Z,2.55
2023-04-10T07:22:46.312Z,2.54
2023-04-10T07:23:46.300Z,2.72
2023-04-10T07:24:46.322Z,2.73
2023-04-10T07:25:46.337Z,2.90
2023-04-10T07:26:46.352Z,2.88
2023-04-10T07:27:46.360Z,2.31
2023-04-10T07:28:46.354Z,2.93
2023-04-10T07:29:46.395Z,2.40
2023-04-10T07:30:46.381Z,2.63
2023-04-10T07:31:46.480Z,2.99
2023-04-10T07:32:46.519Z,2.63
2023-04-10T07:33:46.503Z,2.93
2023-04-10T07:34:46.462Z,2.99
2023-04-10T07:35:46.527Z,2.54
2023-04-10T07:36:46.492Z,2.60
2023-04-10T07:37:46.499Z,2.46
2023-04-10T07:38:46.575Z,2.39
2023-04-10T07:39:46.517Z,2.76
2023-04-10T07:40:46.550Z,2.58
2023-04-10T07:41:46.555Z,2.36
2023-04-10T07:42:46.560Z,2.99
2023-04-10T07:43:46.571Z,2.40
2023-04-10T07:44:46.597Z,2.55
2023-04-10T07:45:46.662Z,2.60
2023-04-10T07:46:46.634Z,2.19
2023-04-10T07:47:46.653Z,2.64
2023-04-10T07:48:46.655Z,2.68
2023-04-10T07:49:46.674Z,2.56
2023-04-10T07:50:46.710Z,2.38
2023-04-10T07:51:46.720Z,2.43
2023-04-10T07:52:46.718Z,2.54
2023-04-10T07:53:46.741Z,2.84
2023-04-10T07:54:46.778Z,2.29
2023-04-10T07:55:46.801Z,2.40
2023-04-10T07:56:46.806Z,2.36
2023-04-10T07:57:46.818Z,2.45
2023-04-10T07:58:46.827Z,2.29
2023-04-10T07:59:46.872Z,2.44
2023-04-10T08:00:46.891Z,2.27
2023-04-10T08:01:46.980Z,2.16
2023-04-10T08:02:47.059Z,2.44
2023-04-10T08:03:47.197Z,2.16
2023-04-10T08:04:47.294Z,2.79
2023-04-10T08:05:47.063Z,2.63
2023-04-10T08:06:47.096Z,2.41
2023-04-10T08:07:47.078Z,2.49
2023-04-10T08:08:47.117Z,2.20
2023-04-10T08:09:47.144Z,2.11
2023-04-10T08:10:47.176Z,2.46
2023-04-10T08:11:47.207Z,2.45
2023-04-10T08:12:47.323Z,2.54
2023-04-10T08:13:47.266Z,2.29
2023-04-10T08:14:47.293Z,2.56
2023-04-10T08:15:47.336Z,2.38
2023-04-10T08:16:47.410Z,2.26
2023-04-10T08:17:47.434Z,2.22
2023-04-10T08:18:47.435Z,1.84
2023-04-10T08:19:47.506Z,2.31
2023-04-10T08:20:47.527Z,2.54
2023-04-10T08:21:47.555Z,2.67
2023-04-10T08:22:47.610Z,2.30
2023-04-10T08:23:47.641Z,2.52
2023-04-10T08:24:47.681Z,1.83
2023-04-10T08:25:47.749Z,2.31
2023-04-10T08:26:47.771Z,2.47
2023-04-10T08:27:47.817Z,2.45
2023-04-10T08:28:47.855Z,2.36
2023-04-10T08:29:47.898Z,2.58
2023-04-10T08:30:47.980Z,2.27
2023-04-10T08:31:48.006Z,2.30
2023-04-10T08:32:48.110Z,2.44
2023-04-10T08:33:48.099Z,2.41
2023-04-10T08:34:48.140Z,2.57
2023-04-10T08:35:48.209Z,2.54
2023-04-10T08:36:48.252Z,2.06
2023-04-10T08:37:53.638Z,2.21
2023-04-10T08:38:49.292Z,1.89
2023-04-10T08:39:48.285Z,2.41
2023-04-10T08:40:48.261Z,2.20
2023-04-10T08:41:48.323Z,1.98
2023-04-10T08:42:48.260Z,2.06
2023-04-10T08:43:48.285Z,2.09
2023-04-10T08:44:48.277Z,2.33
2023-04-10T08:45:48.245Z,2.11
2023-04-10T08:46:48.237Z,2.06
2023-04-10T08:47:48.290Z,2.43
2023-04-10T08:48:48.262Z,2.31
2023-04-10T08:49:48.303Z,2.08
2023-04-10T08:50:48.361Z,2.08
2023-04-10T08:51:49.144Z,2.31
2023-04-10T08:52:48.475Z,2.12
2023-04-10T08:53:48.530Z,2.05
2023-04-10T08:54:48.689Z,2.16
2023-04-10T08:55:48.682Z,2.26
2023-04-10T08:56:48.718Z,2.03
2023-04-10T08:57:58.002Z,1.96
2023-04-10T08:58:49.764Z,1.99
2023-04-10T08:59:48.772Z,2.19
2023-04-10T09:00:48.759Z,1.83
2023-04-10T09:01:48.868Z,2.04
2023-04-10T09:02:48.837Z,2.11
2023-04-10T09:03:48.923Z,2.09
2023-04-10T09:04:48.806Z,2.34
2023-04-10T09:05:48.728Z,2.28
2023-04-10T09:06:48.717Z,2.08
2023-04-10T09:07:48.769Z,1.66
2023-04-10T09:08:48.825Z,1.92
2023-04-10T09:09:48.914Z,2.19
2023-04-10T09:10:48.947Z,1.85
2023-04-10T09:11:48.986Z,1.92
2023-04-10T09:12:49.042Z,2.20
2023-04-10T09:13:49.041Z,1.83
2023-04-10T09:14:49.103Z,2.05
2023-04-10T09:15:49.146Z,1.99
2023-04-10T09:16:49.122Z,1.80
2023-04-10T09:17:49.157Z,2.02
2023-04-10T09:18:49.225Z,2.23
2023-04-10T09:19:49.325Z,2.04
2023-04-10T09:20:49.357Z,2.13
2023-04-10T09:21:49.391Z,1.90
2023-04-10T09:22:49.388Z,1.86
2023-04-10T09:23:49.428Z,2.29
2023-04-10T09:24:49.403Z,1.96
2023-04-10T09:25:50.756Z,1.75
2023-04-10T09:26:49.424Z,2.23
2023-04-10T09:27:49.395Z,2.14
2023-04-10T09:28:49.394Z,1.93
2023-04-10T09:29:49.396Z,1.90
2023-04-10T09:30:49.405Z,1.95
2023-04-10T09:31:49.492Z,2.09
2023-04-10T09:32:49.561Z,1.70
2023-04-10T09:33:49.637Z,1.95
2023-04-10T09:34:49.712Z,2.23
2023-04-10T09:35:49.727Z,2.04
2023-04-10T09:36:49.731Z,1.96
2023-04-10T09:37:49.726Z,2.14
2023-04-10T09:38:49.689Z,2.05
2023-04-10T09:39:49.695Z,2.18
2023-04-10T09:40:49.739Z,1.97
2023-04-10T09:41:49.729Z,2.55
2023-04-10T09:42:49.732Z,1.92
2023-04-10T09:43:49.718Z,1.76
2023-04-10T09:44:49.724Z,1.65
2023-04-10T09:45:49.706Z,1.98
2023-04-10T09:46:49.870Z,2.09
2023-04-10T09:47:49.898Z,1.96
2023-04-10T09:48:49.879Z,1.77
2023-04-10T09:49:49.873Z,1.91
2023-04-10T09:50:49.876Z,2.12
2023-04-10T09:51:49.888Z,1.82
2023-04-10T09:52:49.896Z,1.96
2023-04-10T09:53:49.981Z,2.10
2023-04-10T09:54:50.083Z,1.64
2023-04-10T09:55:50.078Z,1.86
2023-04-10T09:56:50.076Z,1.75
2023-04-10T09:57:50.072Z,1.70
2023-04-10T09:58:50.104Z,2.08
2023-04-10T09:59:50.126Z,2.00
2023-04-10T10:00:50.174Z,2.03
2023-04-10T10:01:50.221Z,1.65
2023-04-10T10:02:50.348Z,1.89
2023-04-10T10:03:50.219Z,1.75
2023-04-10T10:04:50.305Z,1.83
2023-04-10T10:05:50.281Z,2.36
2023-04-10T10:06:50.282Z,1.78
2023-04-10T10:07:50.281Z,2.00
2023-04-10T10:08:50.297Z,1.95
2023-04-10T10:09:50.316Z,1.82
2023-04-10T10:10:50.312Z,1.65
2023-04-10T10:11:50.392Z,1.78
2023-04-10T10:12:50.460Z,1.81
2023-04-10T10:13:50.422Z,1.58
2023-04-10T10:14:50.458Z,1.66
2023-04-10T10:15:50.473Z,1.76
2023-04-10T10:16:50.456Z,1.90
2023-04-10T10:17:50.558Z,1.52
2023-04-10T10:18:50.557Z,1.47
2023-04-10T10:19:50.548Z,1.60
2023-04-10T10:20:50.584Z,1.92
2023-04-10T10:21:50.589Z,1.91
2023-04-10T10:22:50.617Z,1.65
2023-04-10T10:23:50.619Z,1.87
2023-04-10T10:24:50.649Z,1.85
2023-04-10T10:25:50.669Z,2.09
2023-04-10T10:26:50.680Z,1.58
2023-04-10T10:27:50.723Z,1.71
2023-04-10T10:28:50.731Z,1.80
2023-04-10T10:29:50.762Z,1.64
2023-04-10T10:30:50.764Z,1.76
2023-04-10T10:31:50.808Z,1.67
2023-04-10T10:32:50.827Z,1.82
2023-04-10T10:33:50.808Z,1.87
2023-04-10T10:34:50.831Z,1.71
2023-04-10T10:35:50.836Z,1.59
2023-04-10T10:36:50.906Z,1.41
2023-04-10T10:37:50.901Z,1.73
2023-04-10T10:38:50.935Z,1.60
2023-04-10T10:39:50.931Z,1.51
2023-04-10T10:40:50.945Z,1.60
2023-04-10T10:41:50.959Z,1.73
2023-04-10T10:42:50.986Z,1.77
2023-04-10T10:43:50.990Z,1.72
2023-04-10T10:44:51.026Z,1.28
2023-04-10T10:45:51.160Z,1.55
2023-04-10T10:46:51.045Z,1.56
2023-04-10T10:47:51.089Z,1.53
2023-04-10T10:48:51.155Z,1.71
2023-04-10T10:49:51.124Z,1.53
2023-04-10T10:50:51.129Z,1.67
2023-04-10T10:51:51.171Z,1.45
2023-04-10T10:52:51.178Z,1.63
2023-04-10T10:53:51.219Z,1.38
2023-04-10T10:54:59.497Z,1.33
2023-04-10T10:55:52.231Z,1.70
2023-04-10T10:56:51.223Z,1.51
2023-04-10T10:57:51.209Z,1.55
2023-04-10T10:58:51.220Z,1.42
2023-04-10T10:59:51.187Z,1.43
2023-04-10T11:00:51.217Z,1.57
2023-04-10T11:01:51.333Z,1.39
2023-04-10T11:02:51.238Z,1.57
2023-04-10T11:03:51.304Z,1.32
2023-04-10T11:04:51.194Z,1.47
2023-04-10T11:05:51.180Z,1.74
2023-04-10T11:06:51.165Z,1.57
2023-04-10T11:07:51.129Z,1.51
2023-04-10T11:08:51.150Z,1.28
2023-04-10T11:09:51.173Z,1.44
2023-04-10T11:10:51.106Z,1.33
2023-04-10T11:11:51.108Z,1.42
2023-04-10T11:12:51.095Z,1.32
2023-04-10T11:13:51.091Z,1.84
2023-04-10T11:14:51.095Z,1.29
2023-04-10T11:15:51.107Z,1.17
2023-04-10T11:16:51.209Z,1.60
2023-04-10T11:17:51.410Z,1.21
2023-04-10T11:18:59.457Z,1.26
2023-04-10T11:19:52.184Z,1.32
2023-04-10T11:20:51.154Z,1.35
2023-04-10T11:21:51.166Z,1.09
2023-04-10T11:22:51.140Z,1.23
2023-04-10T11:23:51.137Z,1.42
2023-04-10T11:24:51.128Z,1.36
2023-04-10T11:25:51.123Z,1.23
2023-04-10T11:26:51.128Z,1.20
2023-04-10T11:27:51.126Z,1.10
2023-04-10T11:28:51.104Z,1.32
2023-04-10T11:29:51.102Z,1.33
2023-04-10T11:30:51.094Z,1.45
2023-04-10T11:31:51.102Z,1.67
2023-04-10T11:32:51.149Z,1.55
2023-04-10T11:33:51.069Z,1.18
2023-04-10T11:34:51.087Z,1.25
2023-04-10T11:35:51.095Z,1.16
2023-04-10T11:36:51.116Z,1.21
2023-04-10T11:37:51.138Z,1.18
2023-04-10T11:38:51.376Z,1.37
2023-04-10T11:39:51.201Z,1.46
2023-04-10T11:40:51.233Z,1.17
2023-04-10T11:41:51.295Z,1.20
2023-04-10T11:42:51.330Z,1.16
2023-04-10T11:43:51.378Z,1.13
2023-04-10T11:44:51.401Z,1.32
2023-04-10T11:45:51.466Z,1.25
2023-04-10T11:46:51.517Z,0.89
2023-04-10T11:47:51.564Z,1.14
2023-04-10T11:48:51.597Z,1.23
2023-04-10T11:49:51.633Z,1.26
2023-04-10T11:50:51.669Z,1.22
2023-04-10T11:51:51.692Z,1.22
2023-04-10T11:52:52.279Z,1.20
2023-04-10T11:53:51.804Z,1.61
2023-04-10T11:54:51.839Z,1.46
2023-04-10T11:55:51.870Z,1.24
2023-04-10T11:56:51.916Z,1.20
2023-04-10T11:57:51.947Z,1.12
2023-04-10T11:58:52.336Z,1.06
2023-04-10T11:59:52.065Z,1.15
2023-04-10T12:00:52.097Z,1.06
2023-04-10T12:01:52.182Z,1.14
2023-04-10T12:02:52.383Z,1.55
2023-04-10T12:03:52.481Z,1.22
2023-04-10T12:04:52.313Z,1.14
2023-04-10T12:05:52.328Z,1.18
2023-04-10T12:06:52.391Z,1.20
2023-04-10T12:07:52.402Z,1.10
2023-04-10T12:08:52.834Z,1.12
2023-04-10T12:09:52.513Z,1.11
2023-04-10T12:10:52.559Z,1.09
2023-04-10T12:11:52.602Z,1.07
2023-04-10T12:12:52.665Z,1.26
2023-04-10T12:13:52.693Z,1.19
2023-04-10T12:14:52.764Z,0.91
2023-04-10T12:15:52.809Z,0.99
2023-04-10T12:16:52.947Z,0.94
2023-04-10T12:17:52.965Z,1.04
2023-04-10T12:18:53.318Z,1.14
2023-04-10T12:19:53.037Z,1.12
2023-04-10T12:20:53.088Z,0.88
2023-04-10T12:21:53.148Z,1.35
2023-04-10T12:22:53.207Z,1.00
2023-04-10T12:23:53.275Z,1.06
2023-04-10T12:24:53.351Z,1.00
2023-04-10T12:25:53.362Z,1.04
2023-04-10T12:26:53.409Z,1.19
2023-04-10T12:27:53.465Z,1.00
2023-04-10T12:28:53.731Z,0.92
2023-04-10T12:29:53.574Z,0.82
2023-04-10T12:30:53.689Z,0.94
2023-04-10T12:31:53.710Z,1.02
2023-04-10T12:32:53.792Z,1.04
2023-04-10T12:33:53.801Z,0.85
2023-04-10T12:34:53.880Z,1.03
2023-04-10T12:35:53.980Z,0.90
2023-04-10T12:36:54.028Z,0.95
2023-04-10T12:37:54.047Z,0.92
2023-04-10T12:38:54.398Z,0.76
2023-04-10T12:39:54.186Z,0.94
2023-04-10T12:40:54.235Z,0.90
2023-04-10T12:41:54.280Z,1.03
2023-04-10T12:42:54.360Z,0.78
2023-04-10T12:43:54.406Z,0.83
2023-04-10T12:44:54.510Z,1.05
2023-04-10T12:45:55.777Z,1.25
2023-04-10T12:46:54.723Z,0.87
2023-04-10T12:47:54.748Z,0.82
2023-04-10T12:48:54.881Z,1.04
2023-04-10T12:49:54.756Z,1.23
2023-04-10T12:50:54.833Z,1.15
2023-04-10T12:51:54.896Z,1.08
2023-04-10T12:52:54.932Z,1.04
2023-04-10T12:53:55.050Z,0.95
2023-04-10T12:54:55.057Z,1.00
2023-04-10T12:55:55.413Z,0.91
2023-04-10T12:56:55.179Z,0.82
2023-04-10T12:57:55.225Z,0.71
2023-04-10T12:58:55.541Z,1.03
2023-04-10T12:59:55.345Z,0.64
2023-04-10T13:00:55.405Z,1.07
2023-04-10T13:01:55.631Z,0.97
2023-04-10T13:02:55.642Z,0.95
2023-04-10T13:03:55.698Z,0.98
2023-04-10T13:04:55.639Z,0.94
2023-04-10T13:05:55.711Z,0.88
2023-04-10T13:06:55.795Z,1.25
2023-04-10T13:07:55.828Z,0.81
2023-04-10T13:08:56.117Z,0.88
2023-04-10T13:09:55.945Z,0.81
2023-04-10T13:10:56.002Z,0.91
2023-04-10T13:11:56.065Z,0.72
2023-04-10T13:12:56.128Z,0.65
2023-04-10T13:13:56.170Z,0.90
2023-04-10T13:14:56.245Z,0.96
2023-04-10T13:15:56.332Z,0.71
2023-04-10T13:16:56.338Z,0.82
2023-04-10T13:17:56.390Z,0.83
2023-04-10T13:18:56.607Z,0.75